createdAt,value
2022-09-30T00:01:22.708Z,17.85
2022-09-30T00:03:49.471Z,17.52
2022-09-30T00:06:16.070Z,18.80
2022-09-30T00:08:42.562Z,17.40
2022-09-30T00:11:19.029Z,17.25
2022-09-30T00:13:48.055Z,19.90
2022-09-30T00:16:16.218Z,14.10
2022-09-30T00:18:43.860Z,13.35
2022-09-30T00:21:12.269Z,12.80
2022-09-30T00:23:39.659Z,16.23
2022-09-30T00:26:09.400Z,14.95
2022-09-30T00:28:35.892Z,16.73
2022-09-30T00:31:17.256Z,14.48
2022-09-30T00:33:44.394Z,15.45
2022-09-30T00:36:11.237Z,13.95
2022-09-30T00:38:37.685Z,13.23
2022-09-30T00:41:04.548Z,14.32
2022-09-30T00:43:51.401Z,13.40
2022-09-30T00:46:44.549Z,16.30
2022-09-30T00:49:29.785Z,15.75
2022-09-30T00:51:57.521Z,13.95
2022-09-30T00:54:29.671Z,14.95
2022-09-30T00:57:00.701Z,14.25
2022-09-30T00:59:33.174Z,14.48
2022-09-30T01:02:01.153Z,14.40
2022-09-30T01:04:31.440Z,14.10
2022-09-30T01:07:04.440Z,14.50
2022-09-30T01:09:37.024Z,14.35
2022-09-30T01:12:07.270Z,17.17
2022-09-30T01:14:35.432Z,12.45
2022-09-30T01:17:16.715Z,15.70
2022-09-30T01:20:04.462Z,16.40
2022-09-30T01:22:42.339Z,16.55
2022-09-30T01:25:30.505Z,14.40
2022-09-30T01:28:10.961Z,18.08
2022-09-30T01:30:56.017Z,13.45
2022-09-30T01:34:04.108Z,15.93
2022-09-30T01:36:50.041Z,14.40
2022-09-30T01:39:25.630Z,14.38
2022-09-30T01:42:35.432Z,15.80
2022-09-30T01:45:14.208Z,15.20
2022-09-30T01:48:02.836Z,13.52
2022-09-30T01:50:41.348Z,14.40
2022-09-30T01:53:15.625Z,14.77
2022-09-30T01:56:01.575Z,13.23
2022-09-30T01:58:53.569Z,14.65
2022-09-30T02:01:26.113Z,13.60
2022-09-30T02:03:59.397Z,14.18
2022-09-30T02:06:32.154Z,13.60
2022-09-30T02:09:04.877Z,13.73
2022-09-30T02:11:36.392Z,16.42
2022-09-30T02:14:11.961Z,14.82
2022-09-30T02:16:42.405Z,14.40
2022-09-30T02:19:40.675Z,14.00
2022-09-30T02:22:16.357Z,12.10
2022-09-30T02:24:45.899Z,15.20
2022-09-30T02:27:25.162Z,13.68
2022-09-30T02:29:57.754Z,16.55
2022-09-30T02:32:35.604Z,15.35
2022-09-30T02:35:10.500Z,13.40
2022-09-30T02:37:41.803Z,17.40
2022-09-30T02:40:22.634Z,15.18
2022-09-30T02:42:49.179Z,16.65
2022-09-30T02:45:19.663Z,15.73
2022-09-30T02:48:08.044Z,16.55
2022-09-30T02:50:57.220Z,13.52
2022-09-30T02:53:43.228Z,15.80
2022-09-30T02:56:29.709Z,17.08
2022-09-30T02:58:57.689Z,15.70
2022-09-30T03:01:24.437Z,17.27
2022-09-30T03:03:54.814Z,15.85
2022-09-30T03:06:21.752Z,14.52
2022-09-30T03:08:48.502Z,12.95
2022-09-30T03:11:17.970Z,14.98
2022-09-30T03:16:50.661Z,16.20
2022-09-30T03:19:50.756Z,13.73
2022-09-30T03:22:47.854Z,13.85
2022-09-30T03:25:36.165Z,12.75
2022-09-30T03:28:26.912Z,18.58
2022-09-30T03:31:09.319Z,12.60
2022-09-30T03:34:00.720Z,13.13
2022-09-30T03:36:30.045Z,14.48
2022-09-30T03:39:25.720Z,18.35
2022-09-30T03:42:13.364Z,15.95
2022-09-30T03:45:02.957Z,13.52
2022-09-30T03:47:33.628Z,15.77
2022-09-30T03:50:04.427Z,18.00
2022-09-30T03:52:33.426Z,18.95
2022-09-30T03:55:02.746Z,15.30
2022-09-30T03:57:30.876Z,15.93
2022-09-30T03:59:58.141Z,15.20
2022-09-30T04:02:25.409Z,12.68
2022-09-30T04:04:52.024Z,14.13
2022-09-30T04:07:18.530Z,16.70
2022-09-30T04:09:45.099Z,15.30
2022-09-30T04:12:11.604Z,15.60
2022-09-30T04:14:38.090Z,17.52
2022-09-30T04:17:05.417Z,15.63
2022-09-30T04:19:32.232Z,15.88
2022-09-30T04:21:58.892Z,16.55
2022-09-30T04:24:25.434Z,16.17
2022-09-30T04:26:52.191Z,16.90
2022-09-30T04:29:18.740Z,15.43
2022-09-30T04:31:45.329Z,16.13
2022-09-30T04:34:11.862Z,16.00
2022-09-30T04:36:38.464Z,15.40
2022-09-30T04:39:05.289Z,17.55
2022-09-30T04:41:34.043Z,19.90
2022-09-30T04:44:05.825Z,15.55
2022-09-30T04:46:34.373Z,18.58
2022-09-30T04:49:00.912Z,15.55
2022-09-30T04:51:27.382Z,16.52
2022-09-30T04:53:53.929Z,19.83
2022-09-30T04:56:20.448Z,33.65
2022-09-30T04:58:47.204Z,23.73
2022-09-30T05:01:18.233Z,19.92
2022-09-30T05:03:45.591Z,16.08
2022-09-30T05:06:12.809Z,18.63
2022-09-30T05:08:44.735Z,18.48
2022-09-30T05:11:17.323Z,15.98
2022-09-30T05:13:44.275Z,17.75
2022-09-30T05:16:11.226Z,16.63
2022-09-30T05:18:40.802Z,16.13
2022-09-30T05:21:07.462Z,17.10
2022-09-30T05:23:34.468Z,16.75
2022-09-30T05:26:02.303Z,16.52
2022-09-30T05:28:31.120Z,16.48
2022-09-30T05:30:59.969Z,18.98
2022-09-30T05:33:29.395Z,20.73
2022-09-30T05:35:59.424Z,21.08
2022-09-30T05:38:25.937Z,17.85
2022-09-30T05:40:52.636Z,17.30
2022-09-30T05:43:19.248Z,19.95
2022-09-30T05:45:56.277Z,19.85
2022-09-30T05:48:24.302Z,19.55
2022-09-30T05:50:55.323Z,24.23
2022-09-30T05:53:21.952Z,21.63
2022-09-30T05:55:48.894Z,20.08
2022-09-30T05:58:16.363Z,19.73
2022-09-30T06:00:44.674Z,21.88
2022-09-30T06:03:11.476Z,21.98
2022-09-30T06:05:37.927Z,21.85
2022-09-30T06:08:07.071Z,19.25
2022-09-30T06:10:34.500Z,23.77
2022-09-30T06:13:03.561Z,17.30
2022-09-30T06:15:34.052Z,23.67
2022-09-30T06:18:05.232Z,26.48
2022-09-30T06:20:32.243Z,24.37
2022-09-30T06:23:01.938Z,20.00
2022-09-30T06:25:29.538Z,24.17
2022-09-30T06:27:56.883Z,19.50
2022-09-30T06:30:24.030Z,21.98
2022-09-30T06:32:51.455Z,23.52
2022-09-30T06:35:19.361Z,24.40
2022-09-30T06:37:46.030Z,20.35
2022-09-30T06:40:12.540Z,21.60
2022-09-30T06:42:39.040Z,23.60
2022-09-30T06:45:06.391Z,31.73
2022-09-30T06:47:33.285Z,28.10
2022-09-30T06:49:59.918Z,28.67
2022-09-30T06:52:27.164Z,29.65
2022-09-30T06:54:56.520Z,26.92
2022-09-30T06:57:24.903Z,27.30
2022-09-30T07:00:05.592Z,29.70
2022-09-30T07:02:34.329Z,25.38
2022-09-30T07:05:04.051Z,26.13
2022-09-30T07:10:01.042Z,24.92
2022-09-30T07:12:27.493Z,26.30
2022-09-30T07:14:54.027Z,25.55
2022-09-30T07:17:20.519Z,24.88
2022-09-30T07:19:47.064Z,28.83
2022-09-30T07:22:31.850Z,28.92
2022-09-30T07:25:03.945Z,25.88
2022-09-30T07:27:33.440Z,31.52
2022-09-30T07:32:46.949Z,31.10
2022-09-30T07:35:13.474Z,30.02
2022-09-30T07:37:40.590Z,30.80
2022-09-30T07:40:09.299Z,35.05
2022-09-30T07:42:40.042Z,34.83
2022-09-30T07:45:07.195Z,32.60
2022-09-30T07:47:33.634Z,35.42
2022-09-30T07:50:00.418Z,32.83
2022-09-30T07:52:26.931Z,33.88
2022-09-30T07:54:53.426Z,34.15
2022-09-30T07:57:21.514Z,31.23
2022-09-30T07:59:48.104Z,34.75
2022-09-30T08:02:17.653Z,34.00
2022-09-30T08:04:45.838Z,36.22
2022-09-30T08:07:14.211Z,31.08
2022-09-30T08:09:40.740Z,27.95
2022-09-30T08:12:07.687Z,32.28
2022-09-30T08:14:34.204Z,31.25
2022-09-30T08:17:01.105Z,31.00
2022-09-30T08:19:29.400Z,32.30
2022-09-30T08:21:56.762Z,31.20
2022-09-30T08:24:24.669Z,35.63
2022-09-30T08:26:51.734Z,31.60
2022-09-30T08:29:20.792Z,30.58
2022-09-30T08:31:52.282Z,32.92
2022-09-30T08:34:19.148Z,32.15
2022-09-30T08:36:46.454Z,30.70
2022-09-30T08:39:12.942Z,27.77
2022-09-30T08:41:39.337Z,27.30
2022-09-30T08:44:18.009Z,28.48
2022-09-30T08:46:58.766Z,33.63
2022-09-30T08:49:50.187Z,26.60
2022-09-30T08:52:55.197Z,26.05
2022-09-30T08:55:25.050Z,29.75
2022-09-30T08:57:53.633Z,26.25
2022-09-30T09:00:21.400Z,25.10
2022-09-30T09:02:54.962Z,26.33
2022-09-30T09:06:00.128Z,27.38
2022-09-30T09:08:49.378Z,28.55
2022-09-30T09:11:54.849Z,28.52
2022-09-30T09:14:39.810Z,27.13
2022-09-30T09:17:22.285Z,27.52
2022-09-30T09:20:05.006Z,25.27
2022-09-30T09:22:32.058Z,28.90
2022-09-30T09:24:59.660Z,26.77
2022-09-30T09:27:40.306Z,27.33
2022-09-30T09:30:08.672Z,24.30
2022-09-30T09:32:36.085Z,25.17
2022-09-30T09:35:14.569Z,25.48
2022-09-30T09:38:05.856Z,25.23
2022-09-30T09:40:39.363Z,26.35
2022-09-30T09:43:15.181Z,26.58
2022-09-30T09:45:54.831Z,22.55
2022-09-30T09:48:21.493Z,24.10
2022-09-30T09:51:03.844Z,24.65
2022-09-30T09:53:45.209Z,24.52
2022-09-30T09:56:23.178Z,26.30
2022-09-30T09:59:18.052Z,22.52
2022-09-30T10:01:52.108Z,25.23
2022-09-30T10:04:24.602Z,21.45
2022-09-30T10:07:01.406Z,24.08
2022-09-30T10:09:35.351Z,23.35
2022-09-30T10:12:07.930Z,20.73
2022-09-30T10:14:46.297Z,19.15
2022-09-30T10:17:29.332Z,21.73
2022-09-30T10:20:01.863Z,22.25
2022-09-30T10:22:31.164Z,21.88
2022-09-30T10:25:18.685Z,18.98
2022-09-30T10:27:50.681Z,18.83
2022-09-30T10:30:43.106Z,21.27
2022-09-30T10:33:18.497Z,24.48
2022-09-30T10:35:56.429Z,19.23
2022-09-30T10:38:25.687Z,17.27
2022-09-30T10:40:52.561Z,20.77
2022-09-30T10:43:28.206Z,18.38
2022-09-30T10:46:13.772Z,18.00
2022-09-30T10:48:41.487Z,18.60
2022-09-30T10:51:24.126Z,18.92
2022-09-30T10:53:50.757Z,17.33
2022-09-30T10:56:37.708Z,18.60
2022-09-30T10:59:07.055Z,20.48
2022-09-30T11:01:52.494Z,17.20
2022-09-30T11:04:24.444Z,18.70
2022-09-30T11:07:02.369Z,17.60
2022-09-30T11:09:37.640Z,20.73
2022-09-30T11:12:14.223Z,18.67
2022-09-30T11:14:57.833Z,17.38
2022-09-30T11:17:27.822Z,15.32
2022-09-30T11:20:09.423Z,15.02
2022-09-30T11:22:43.940Z,16.20
2022-09-30T11:25:17.296Z,15.93
2022-09-30T11:27:55.826Z,16.63
2022-09-30T11:30:36.967Z,13.50
2022-09-30T11:33:18.627Z,12.15
2022-09-30T11:36:26.838Z,13.13
2022-09-30T11:39:12.257Z,16.88
2022-09-30T11:42:03.008Z,13.38
2022-09-30T11:44:34.959Z,13.10
2022-09-30T11:47:23.225Z,13.90
2022-09-30T11:50:07.825Z,11.55
2022-09-30T11:52:52.968Z,10.93
2022-09-30T11:55:23.487Z,14.40
2022-09-30T11:58:39.285Z,8.45
2022-09-30T12:01:13.225Z,9.02
2022-09-30T12:03:47.895Z,11.00
2022-09-30T12:06:36.212Z,10.60
2022-09-30T12:09:35.035Z,7.25
2022-09-30T12:12:16.745Z,11.10
2022-09-30T12:14:51.654Z,10.57
2022-09-30T12:17:32.905Z,13.25
2022-09-30T12:20:18.547Z,10.50
2022-09-30T12:22:47.584Z,11.68
2022-09-30T12:25:42.308Z,8.80
2022-09-30T12:28:39.740Z,8.50
2022-09-30T12:31:38.276Z,7.13
2022-09-30T12:34:52.054Z,8.93
2022-09-30T12:37:48.772Z,7.43
2022-09-30T12:40:33.987Z,6.30
2022-09-30T12:43:16.111Z,6.55
2022-09-30T12:46:13.421Z,6.68
2022-09-30T12:48:53.406Z,4.68
2022-09-30T12:51:29.724Z,4.57
2022-09-30T12:54:04.380Z,7.30
2022-09-30T12:56:32.802Z,7.63
2022-09-30T12:59:00.592Z,3.95
2022-09-30T13:01:34.930Z,4.07
2022-09-30T13:04:01.395Z,4.97
2022-09-30T13:06:47.747Z,5.32
2022-09-30T13:09:16.947Z,3.78
2022-09-30T13:11:44.664Z,3.08
2022-09-30T13:14:29.501Z,5.03
2022-09-30T13:17:08.031Z,6.68
2022-09-30T13:19:46.569Z,3.85
2022-09-30T13:22:24.164Z,3.03
2022-09-30T13:25:12.090Z,3.80
2022-09-30T13:28:12.786Z,4.00
2022-09-30T13:30:40.240Z,2.25
2022-09-30T13:33:28.393Z,3.80
2022-09-30T13:35:58.682Z,4.32
2022-09-30T13:38:42.270Z,5.60
2022-09-30T13:41:24.184Z,3.20
2022-09-30T13:44:03.457Z,6.65
2022-09-30T13:46:43.535Z,3.22
2022-09-30T13:49:42.189Z,4.35
2022-09-30T13:52:35.102Z,3.50
2022-09-30T13:55:21.334Z,6.68
2022-09-30T13:58:22.477Z,7.13
2022-09-30T14:01:00.956Z,5.85
2022-09-30T14:03:49.135Z,3.17
2022-09-30T14:06:38.266Z,3.97
2022-09-30T14:09:19.336Z,5.75
2022-09-30T14:12:16.601Z,4.82
2022-09-30T14:15:00.308Z,4.30
2022-09-30T14:17:53.488Z,4.55
2022-09-30T14:20:37.078Z,3.65
2022-09-30T14:23:03.988Z,4.38
2022-09-30T14:25:38.153Z,4.13
2022-09-30T14:28:11.038Z,5.93
2022-09-30T14:30:45.258Z,5.70
2022-09-30T14:33:25.522Z,4.05
2022-09-30T14:38:58.332Z,4.43
2022-09-30T14:41:26.525Z,6.95
2022-09-30T14:44:02.776Z,5.47
2022-09-30T14:46:32.873Z,4.10
2022-09-30T14:49:05.973Z,5.10
2022-09-30T14:51:43.181Z,6.78
2022-09-30T14:54:19.197Z,7.10
2022-09-30T14:56:48.188Z,5.18
2022-09-30T14:59:27.016Z,4.05
2022-09-30T15:02:22.990Z,4.35
2022-09-30T15:04:55.229Z,3.15
2022-09-30T15:07:24.557Z,5.00
2022-09-30T15:09:52.523Z,3.90
2022-09-30T15:12:23.587Z,4.28
2022-09-30T15:14:58.673Z,3.97
2022-09-30T15:17:30.578Z,7.30
2022-09-30T15:19:58.634Z,1.77
2022-09-30T15:22:27.324Z,5.70
2022-09-30T15:24:54.850Z,6.53
2022-09-30T15:27:32.945Z,4.00
2022-09-30T15:30:02.400Z,8.95
2022-09-30T15:32:32.813Z,7.35
2022-09-30T15:35:25.690Z,12.27
2022-09-30T15:37:52.585Z,10.95
2022-09-30T15:40:40.299Z,4.93
2022-09-30T15:43:11.761Z,4.70
2022-09-30T15:45:44.181Z,2.53
2022-09-30T15:48:25.941Z,2.72
2022-09-30T15:50:59.290Z,1.75
2022-09-30T15:53:46.542Z,5.45
2022-09-30T15:56:37.677Z,2.38
2022-09-30T15:59:07.609Z,3.22
2022-09-30T16:01:46.558Z,5.70
2022-09-30T16:04:24.573Z,4.55
2022-09-30T16:06:54.034Z,5.38
2022-09-30T16:09:20.483Z,3.00
2022-09-30T16:11:59.723Z,2.22
2022-09-30T16:14:30.085Z,5.53
2022-09-30T16:16:59.964Z,4.97
2022-09-30T16:19:28.515Z,3.78
2022-09-30T16:21:56.168Z,5.40
2022-09-30T16:24:27.170Z,5.63
2022-09-30T16:26:57.997Z,3.50
2022-09-30T16:29:26.269Z,4.50
2022-09-30T16:31:55.580Z,3.47
2022-09-30T16:34:25.150Z,5.45
2022-09-30T16:36:53.653Z,7.85
2022-09-30T16:39:20.433Z,2.33
2022-09-30T16:41:47.245Z,3.28
2022-09-30T16:44:13.788Z,4.45
2022-09-30T16:46:40.212Z,5.38
2022-09-30T16:49:14.762Z,4.93
2022-09-30T16:51:42.010Z,5.47
2022-09-30T16:54:09.074Z,7.55
2022-09-30T16:56:35.688Z,7.00
2022-09-30T16:59:02.516Z,6.70
2022-09-30T17:01:29.057Z,5.35
2022-09-30T17:03:57.237Z,7.07
2022-09-30T17:06:29.097Z,2.95
2022-09-30T17:08:56.782Z,2.83
2022-09-30T17:11:27.915Z,10.80
2022-09-30T17:13:54.396Z,3.20
2022-09-30T17:16:22.591Z,5.20
2022-09-30T17:18:49.723Z,7.15
2022-09-30T17:21:20.297Z,6.78
2022-09-30T17:23:46.936Z,4.50
2022-09-30T17:26:13.913Z,5.78
2022-09-30T17:28:40.775Z,8.65
2022-09-30T17:31:11.484Z,7.70
2022-09-30T17:33:39.734Z,11.57
2022-09-30T17:36:09.569Z,9.27
2022-09-30T17:38:36.426Z,11.10
2022-09-30T17:41:21.934Z,9.57
2022-09-30T17:43:48.579Z,6.68
2022-09-30T17:46:18.689Z,6.22
2022-09-30T17:48:46.558Z,8.70
2022-09-30T17:51:14.689Z,7.25
2022-09-30T17:53:41.164Z,7.70
2022-09-30T17:56:16.844Z,8.40
2022-09-30T17:58:47.288Z,11.55
2022-09-30T18:01:15.090Z,8.43
2022-09-30T18:03:41.619Z,9.77
2022-09-30T18:06:08.365Z,10.45
2022-09-30T18:08:35.717Z,8.02
2022-09-30T18:11:02.657Z,8.80
2022-09-30T18:13:29.889Z,7.20
2022-09-30T18:16:01.698Z,5.68
2022-09-30T18:18:28.997Z,8.55
2022-09-30T18:20:55.496Z,8.00
2022-09-30T18:23:22.005Z,5.97
2022-09-30T18:25:49.615Z,9.10
2022-09-30T18:28:17.134Z,4.55
2022-09-30T18:30:43.865Z,5.32
2022-09-30T18:33:10.869Z,8.27
2022-09-30T18:35:39.293Z,9.73
2022-09-30T18:38:06.745Z,9.32
2022-09-30T18:40:33.953Z,5.43
2022-09-30T18:43:04.153Z,9.70
2022-09-30T18:45:33.297Z,7.40
2022-09-30T18:48:00.437Z,6.65
2022-09-30T18:50:28.658Z,8.52
2022-09-30T18:52:56.234Z,7.07
2022-09-30T18:55:22.680Z,9.55
2022-09-30T18:57:50.318Z,11.48
2022-09-30T19:00:17.984Z,7.60
2022-09-30T19:02:44.641Z,10.02
2022-09-30T19:05:12.965Z,6.05
2022-09-30T19:07:39.516Z,7.10
2022-09-30T19:10:07.682Z,12.27
2022-09-30T19:12:35.842Z,19.25
2022-09-30T19:15:08.089Z,6.38
2022-09-30T19:17:36.859Z,8.55
2022-09-30T19:20:06.761Z,10.40
2022-09-30T19:22:37.059Z,10.93
2022-09-30T19:25:05.222Z,8.93
2022-09-30T19:27:33.102Z,8.40
2022-09-30T19:29:59.835Z,10.07
2022-09-30T19:32:28.761Z,9.25
2022-09-30T19:35:05.250Z,9.48
2022-09-30T19:37:33.098Z,7.53
2022-09-30T19:40:04.309Z,10.77
2022-09-30T19:42:32.940Z,10.15
2022-09-30T19:44:59.379Z,7.82
2022-09-30T19:47:27.930Z,9.00
2022-09-30T19:49:59.421Z,8.52
2022-09-30T19:52:26.861Z,9.90
2022-09-30T19:54:57.387Z,10.00
2022-09-30T19:57:24.475Z,12.63
2022-09-30T19:59:51.271Z,11.90
2022-09-30T20:02:19.763Z,8.00
2022-09-30T20:04:46.374Z,8.73
2022-09-30T20:07:14.801Z,11.68
2022-09-30T20:09:42.476Z,8.93
2022-09-30T20:12:10.101Z,9.73
2022-09-30T20:14:55.572Z,7.57
2022-09-30T20:17:22.528Z,8.45
2022-09-30T20:20:09.223Z,10.27
2022-09-30T20:22:35.702Z,11.30
2022-09-30T20:25:02.493Z,8.13
2022-09-30T20:27:31.006Z,9.45
2022-09-30T20:29:57.468Z,9.45
2022-09-30T20:32:24.006Z,9.07
2022-09-30T20:34:51.465Z,10.73
2022-09-30T20:37:17.896Z,8.70
2022-09-30T20:39:44.944Z,7.15
2022-09-30T20:42:11.425Z,8.27
2022-09-30T20:44:37.979Z,11.90
2022-09-30T20:47:04.574Z,7.53
2022-09-30T20:49:31.013Z,6.88
2022-09-30T20:51:57.445Z,9.02
2022-09-30T20:54:24.829Z,10.23
2022-09-30T20:57:06.714Z,10.45
2022-09-30T20:59:33.970Z,10.23
2022-09-30T21:02:00.497Z,9.35
2022-09-30T21:04:27.045Z,7.60
2022-09-30T21:06:53.467Z,8.95
2022-09-30T21:09:19.905Z,9.40
2022-09-30T21:11:46.351Z,8.88
2022-09-30T21:14:15.722Z,8.27
2022-09-30T21:16:42.295Z,6.50
2022-09-30T21:19:10.222Z,11.27
2022-09-30T21:21:36.669Z,8.48
2022-09-30T21:24:03.169Z,8.50
2022-09-30T21:26:29.919Z,8.07
2022-09-30T21:28:56.374Z,7.78
2022-09-30T21:31:26.508Z,9.25
2022-09-30T21:33:58.643Z,8.70
2022-09-30T21:36:26.810Z,8.32
2022-09-30T21:38:54.671Z,8.98
2022-09-30T21:41:21.255Z,10.73
2022-09-30T21:43:47.818Z,9.95
2022-09-30T21:46:15.556Z,8.63
2022-09-30T21:48:42.546Z,9.07
2022-09-30T21:51:10.153Z,10.68
2022-09-30T21:53:38.688Z,10.65
2022-09-30T21:56:06.403Z,11.43
2022-09-30T21:58:33.471Z,14.60
2022-09-30T22:01:03.974Z,12.35
2022-09-30T22:03:35.938Z,11.85
2022-09-30T22:06:05.983Z,11.07
2022-09-30T22:08:36.073Z,13.93
2022-09-30T22:11:06.683Z,12.20
2022-09-30T22:13:33.260Z,11.93
2022-09-30T22:16:05.543Z,12.52
2022-09-30T22:21:07.753Z,11.40
2022-09-30T22:23:34.201Z,13.13
2022-09-30T22:26:11.581Z,10.63
2022-09-30T22:28:38.990Z,13.20
2022-09-30T22:31:20.292Z,13.50
2022-09-30T22:34:10.963Z,12.10
2022-09-30T22:36:55.994Z,11.07
2022-09-30T22:39:23.439Z,12.10
2022-09-30T22:41:54.585Z,12.63
2022-09-30T22:44:29.411Z,13.07
2022-09-30T22:46:57.562Z,10.52
2022-09-30T22:49:24.530Z,10.60
2022-09-30T22:51:51.924Z,10.65
2022-09-30T22:54:18.484Z,11.10
2022-09-30T22:56:45.102Z,12.13
2022-09-30T22:59:11.609Z,11.00
2022-09-30T23:01:38.066Z,11.02
2022-09-30T23:04:05.183Z,9.27
2022-09-30T23:06:31.852Z,12.18
2022-09-30T23:08:58.289Z,9.45
2022-09-30T23:11:24.748Z,9.88
2022-09-30T23:13:58.170Z,11.65
2022-09-30T23:16:25.663Z,11.73
2022-09-30T23:18:52.548Z,11.70
2022-09-30T23:21:19.677Z,8.02
2022-09-30T23:23:48.226Z,12.10
2022-09-30T23:26:20.399Z,10.27
2022-09-30T23:28:47.129Z,9.40
2022-09-30T23:31:16.236Z,12.35
2022-09-30T23:33:54.208Z,10.70
2022-09-30T23:36:26.340Z,8.52
2022-09-30T23:38:53.655Z,11.18
2022-09-30T23:41:20.404Z,9.57
2022-09-30T23:43:48.353Z,10.07
2022-09-30T23:46:17.305Z,10.43
2022-09-30T23:48:47.169Z,11.90
2022-09-30T23:51:14.289Z,11.50
2022-09-30T23:53:42.291Z,9.20
2022-09-30T23:56:15.278Z,11.98
2022-09-30T23:58:43.420Z,12.20
